createdAt,value
2023-12-11T00:02:03.072Z,79.16
2023-12-11T00:05:06.813Z,80.00
2023-12-11T00:08:11.028Z,80.47
2023-12-11T00:11:14.018Z,79.49
2023-12-11T00:14:16.833Z,79.33
2023-12-11T00:17:19.773Z,79.23
2023-12-11T00:20:22.730Z,79.07
2023-12-11T00:23:27.353Z,78.64
2023-12-11T00:26:30.262Z,79.75
2023-12-11T00:29:33.247Z,79.81
2023-12-11T00:32:36.093Z,80.70
2023-12-11T00:35:39.083Z,79.42
2023-12-11T00:38:43.321Z,81.28
2023-12-11T00:41:46.471Z,80.12
2023-12-11T00:44:49.343Z,80.63
2023-12-11T00:47:52.448Z,80.23
2023-12-11T00:50:55.324Z,80.61
2023-12-11T00:53:59.636Z,79.97
2023-12-11T00:57:02.639Z,81.06
2023-12-11T01:00:06.569Z,81.26
2023-12-11T01:03:09.970Z,81.35
2023-12-11T01:06:12.776Z,80.38
2023-12-11T01:09:17.118Z,81.41
2023-12-11T01:12:20.370Z,82.52
2023-12-11T01:15:23.354Z,82.34
2023-12-11T01:18:27.387Z,81.80
2023-12-11T01:21:30.197Z,81.11
2023-12-11T01:24:34.622Z,81.89
2023-12-11T01:27:37.456Z,81.13
2023-12-11T01:30:40.390Z,82.18
2023-12-11T01:33:43.404Z,82.47
2023-12-11T01:36:46.363Z,81.96
2023-12-11T01:39:50.708Z,82.34
2023-12-11T01:43:04.174Z,81.75
2023-12-11T01:46:16.068Z,81.67
2023-12-11T01:49:20.009Z,80.74
2023-12-11T01:52:24.777Z,81.62
2023-12-11T01:55:30.124Z,82.66
2023-12-11T01:58:33.188Z,83.01
2023-12-11T02:01:37.772Z,82.47
2023-12-11T02:04:41.478Z,81.50
2023-12-11T02:07:45.225Z,83.23
2023-12-11T02:10:51.338Z,82.67
2023-12-11T02:13:54.145Z,82.91
2023-12-11T02:16:57.085Z,82.71
2023-12-11T02:19:59.966Z,82.25
2023-12-11T02:23:07.245Z,82.72
2023-12-11T02:26:13.291Z,82.40
2023-12-11T02:29:16.280Z,81.91
2023-12-11T02:35:45.018Z,84.16
2023-12-11T02:38:48.114Z,84.40
2023-12-11T02:41:52.631Z,83.13
2023-12-11T02:44:55.565Z,82.84
2023-12-11T02:48:03.822Z,82.72
2023-12-11T02:51:07.863Z,83.46
2023-12-11T02:54:10.875Z,84.12
2023-12-11T02:57:15.132Z,84.54
2023-12-11T03:00:18.089Z,84.12
2023-12-11T03:03:20.935Z,84.39
2023-12-11T03:06:23.919Z,83.63
2023-12-11T03:09:26.752Z,83.11
2023-12-11T03:12:31.107Z,84.24
2023-12-11T03:15:37.411Z,84.75
2023-12-11T03:18:40.349Z,83.75
2023-12-11T03:21:43.654Z,83.64
2023-12-11T03:24:47.435Z,84.01
2023-12-11T03:27:51.777Z,83.80
2023-12-11T03:30:54.723Z,83.79
2023-12-11T03:33:57.585Z,83.86
2023-12-11T03:37:00.599Z,84.15
2023-12-11T03:40:04.630Z,84.33
2023-12-11T03:43:09.005Z,84.42
2023-12-11T03:46:11.875Z,84.41
2023-12-11T03:49:17.713Z,85.07
2023-12-11T03:52:20.705Z,83.76
2023-12-11T03:55:24.224Z,83.48
2023-12-11T03:58:28.450Z,84.49
2023-12-11T04:01:31.480Z,83.32
2023-12-11T04:04:34.545Z,82.95
2023-12-11T04:07:37.501Z,83.36
2023-12-11T04:10:40.301Z,83.16
2023-12-11T04:13:45.543Z,83.10
2023-12-11T04:16:48.539Z,83.93
2023-12-11T04:19:51.440Z,83.73
2023-12-11T04:22:54.795Z,83.16
2023-12-11T04:26:00.290Z,83.90
2023-12-11T04:29:04.679Z,84.54
2023-12-11T04:32:08.108Z,84.04
2023-12-11T04:35:11.102Z,84.31
2023-12-11T04:38:14.079Z,83.97
2023-12-11T04:41:16.865Z,83.90
2023-12-11T04:44:21.164Z,83.95
2023-12-11T04:47:24.186Z,83.76
2023-12-11T04:50:26.999Z,82.77
2023-12-11T04:53:29.911Z,82.17
2023-12-11T04:56:32.752Z,82.81
2023-12-11T04:59:37.117Z,82.76
2023-12-11T05:02:40.123Z,83.39
2023-12-11T05:05:42.993Z,83.16
2023-12-11T05:08:45.903Z,83.11
2023-12-11T05:11:49.175Z,83.56
2023-12-11T05:14:53.341Z,83.89
2023-12-11T05:17:56.391Z,83.24
2023-12-11T05:20:59.252Z,83.64
2023-12-11T05:24:02.209Z,83.83
2023-12-11T05:27:05.626Z,83.13
2023-12-11T05:30:11.173Z,83.92
2023-12-11T05:33:14.232Z,82.79
2023-12-11T05:36:17.065Z,82.79
2023-12-11T05:39:19.999Z,83.34
2023-12-11T05:42:22.909Z,83.32
2023-12-11T05:45:27.201Z,82.52
2023-12-11T05:48:30.060Z,82.37
2023-12-11T05:51:32.971Z,82.49
2023-12-11T05:54:36.037Z,82.52
2023-12-11T05:57:38.897Z,82.36
2023-12-11T06:00:43.332Z,81.76
2023-12-11T06:03:47.114Z,80.93
2023-12-11T06:06:49.917Z,82.04
2023-12-11T06:09:52.881Z,81.66
2023-12-11T06:12:55.944Z,82.08
2023-12-11T06:16:00.187Z,82.13
2023-12-11T06:19:03.269Z,82.20
2023-12-11T06:22:06.318Z,81.97
2023-12-11T06:25:10.003Z,81.38
2023-12-11T06:28:12.882Z,81.75
2023-12-11T06:31:17.303Z,82.36
2023-12-11T06:34:20.143Z,82.50
2023-12-11T06:37:23.030Z,82.87
2023-12-11T06:40:26.460Z,82.53
2023-12-11T06:43:29.255Z,81.88
2023-12-11T06:46:33.623Z,81.24
2023-12-11T06:49:38.624Z,80.84
2023-12-11T06:52:41.697Z,79.99
2023-12-11T06:55:44.728Z,82.02
2023-12-11T06:58:47.685Z,81.78
2023-12-11T07:01:52.221Z,82.57
2023-12-11T07:04:55.258Z,82.24
2023-12-11T07:07:58.249Z,82.42
2023-12-11T07:11:01.313Z,81.76
2023-12-11T07:14:04.198Z,82.79
2023-12-11T07:17:09.653Z,82.54
2023-12-11T07:20:13.933Z,82.64
2023-12-11T07:23:17.016Z,81.36
2023-12-11T07:26:20.063Z,82.31
2023-12-11T07:29:23.546Z,81.93
2023-12-11T07:32:27.924Z,80.91
2023-12-11T07:35:30.780Z,81.23
2023-12-11T07:38:33.702Z,81.79
2023-12-11T07:41:38.371Z,80.83
2023-12-11T07:44:41.227Z,79.13
2023-12-11T07:47:45.607Z,80.50
2023-12-11T07:50:48.618Z,80.44
2023-12-11T07:53:51.438Z,80.18
2023-12-11T07:56:54.781Z,80.06
2023-12-11T07:59:57.686Z,79.98
2023-12-11T08:03:02.269Z,80.11
2023-12-11T08:06:05.736Z,78.86
2023-12-11T08:09:12.609Z,78.53
2023-12-11T08:12:17.130Z,78.92
2023-12-11T08:15:20.294Z,78.12
2023-12-11T08:18:24.595Z,77.58
2023-12-11T08:21:29.941Z,77.32
2023-12-11T08:24:33.040Z,77.45
2023-12-11T08:27:36.047Z,78.48
2023-12-11T08:30:38.915Z,77.12
2023-12-11T08:33:43.402Z,76.83
2023-12-11T08:36:46.251Z,75.77
2023-12-11T08:39:51.899Z,77.21
2023-12-11T08:42:55.638Z,77.62
2023-12-11T08:45:58.747Z,77.89
2023-12-11T08:49:03.216Z,77.96
2023-12-11T08:52:08.430Z,77.70
2023-12-11T08:55:11.624Z,78.52
2023-12-11T08:58:15.842Z,77.51
2023-12-11T09:01:19.051Z,78.11
2023-12-11T09:04:23.374Z,76.53
2023-12-11T09:07:28.313Z,78.68
2023-12-11T09:10:31.520Z,79.01
2023-12-11T09:13:37.738Z,79.66
2023-12-11T09:16:40.587Z,78.35
2023-12-11T09:19:54.486Z,79.09
2023-12-11T09:22:58.431Z,80.71
2023-12-11T09:26:06.195Z,80.48
2023-12-11T09:29:10.578Z,80.33
2023-12-11T09:32:13.387Z,80.79
2023-12-11T09:35:17.854Z,80.76
2023-12-11T09:38:22.727Z,81.87
2023-12-11T09:41:25.839Z,80.68
2023-12-11T09:44:34.745Z,80.75
2023-12-11T09:47:41.782Z,81.88
2023-12-11T09:50:46.327Z,81.25
2023-12-11T09:53:50.306Z,81.56
2023-12-11T09:56:57.189Z,81.22
2023-12-11T10:00:00.372Z,82.97
2023-12-11T10:03:09.820Z,82.83
2023-12-11T10:06:17.499Z,82.63
2023-12-11T10:09:30.536Z,82.09
2023-12-11T10:12:41.991Z,83.22
2023-12-11T10:15:45.780Z,83.11
2023-12-11T10:18:54.327Z,82.91
2023-12-11T10:22:04.818Z,83.30
2023-12-11T10:25:08.841Z,82.38
2023-12-11T10:28:16.391Z,81.87
2023-12-11T10:31:19.677Z,82.19
2023-12-11T10:34:44.812Z,82.28
2023-12-11T10:37:49.247Z,82.67
2023-12-11T10:40:52.751Z,82.42
2023-12-11T10:44:08.259Z,83.65
2023-12-11T10:47:20.739Z,83.01
2023-12-11T10:50:23.823Z,83.65
2023-12-11T10:53:30.321Z,83.29
2023-12-11T10:56:36.913Z,83.27
2023-12-11T10:59:43.000Z,83.21
2023-12-11T11:02:49.369Z,82.44
2023-12-11T11:05:53.840Z,83.62
2023-12-11T11:09:09.483Z,82.17
2023-12-11T11:12:22.472Z,81.85
2023-12-11T11:15:26.498Z,82.70
2023-12-11T11:18:30.058Z,82.81
2023-12-11T11:21:33.388Z,81.52
2023-12-11T11:24:39.927Z,81.77
2023-12-11T11:27:45.001Z,81.28
2023-12-11T11:30:52.890Z,80.84
2023-12-11T11:33:58.262Z,80.37
2023-12-11T11:37:01.434Z,81.26
2023-12-11T11:40:11.596Z,81.64
2023-12-11T11:43:15.179Z,81.65
2023-12-11T11:46:18.434Z,81.86
2023-12-11T11:49:32.967Z,81.07
2023-12-11T11:52:42.065Z,80.05
2023-12-11T11:55:46.528Z,82.20
2023-12-11T11:58:57.011Z,82.44
2023-12-11T12:02:00.607Z,82.11
2023-12-11T12:05:11.042Z,82.63
2023-12-11T12:08:15.020Z,82.92
2023-12-11T12:11:19.435Z,81.51
2023-12-11T12:14:32.168Z,82.00
2023-12-11T12:17:35.550Z,81.73
2023-12-11T12:20:40.900Z,80.94
2023-12-11T12:23:43.962Z,81.15
2023-12-11T12:26:50.880Z,80.52
2023-12-11T12:29:56.183Z,81.43
2023-12-11T12:32:59.829Z,81.90
2023-12-11T12:36:05.725Z,82.21
2023-12-11T12:39:11.016Z,82.44
2023-12-11T12:42:16.645Z,81.23
2023-12-11T12:45:35.269Z,81.75
2023-12-11T12:48:40.278Z,81.41
2023-12-11T12:51:51.328Z,81.35
2023-12-11T12:54:56.870Z,82.04
2023-12-11T12:58:01.244Z,82.17
2023-12-11T13:01:04.894Z,81.82
2023-12-11T13:04:11.379Z,81.70
2023-12-11T13:07:17.977Z,81.79
2023-12-11T13:10:27.888Z,81.44
2023-12-11T13:13:32.186Z,81.16
2023-12-11T13:16:35.199Z,79.80
2023-12-11T13:19:43.208Z,80.13
2023-12-11T13:22:46.654Z,81.01
2023-12-11T13:25:51.440Z,80.84
2023-12-11T13:28:55.678Z,80.82
2023-12-11T13:31:59.492Z,80.00
2023-12-11T13:35:02.477Z,79.17
2023-12-11T13:38:05.705Z,80.24
2023-12-11T13:41:08.658Z,79.17
2023-12-11T13:44:13.298Z,80.23
2023-12-11T13:47:16.508Z,80.03
2023-12-11T13:50:19.355Z,79.09
2023-12-11T13:53:23.142Z,79.43
2023-12-11T13:56:26.040Z,79.89
2023-12-11T13:59:35.547Z,80.37
2023-12-11T14:02:59.917Z,80.59
2023-12-11T14:06:01.235Z,81.58
2023-12-11T14:09:04.821Z,81.25
2023-12-11T14:12:08.821Z,81.49
2023-12-11T14:15:13.286Z,82.00
2023-12-11T14:18:16.306Z,81.99
2023-12-11T14:21:19.621Z,81.95
2023-12-11T14:24:22.366Z,81.25
2023-12-11T14:27:25.175Z,82.39
2023-12-11T14:30:29.467Z,82.72
2023-12-11T14:33:32.493Z,83.32
2023-12-11T14:36:35.413Z,83.51
2023-12-11T14:39:38.347Z,83.32
2023-12-11T14:42:41.135Z,83.39
2023-12-11T14:45:45.772Z,83.93
2023-12-11T14:48:48.618Z,83.38
2023-12-11T14:51:51.580Z,83.33
2023-12-11T14:54:54.541Z,83.27
2023-12-11T14:57:59.996Z,82.88
2023-12-11T15:01:05.687Z,83.80
2023-12-11T15:04:08.667Z,84.19
2023-12-11T15:07:12.513Z,84.44
2023-12-11T15:10:16.586Z,84.95
2023-12-11T15:13:19.445Z,84.65
2023-12-11T15:16:26.466Z,84.93
2023-12-11T15:19:29.387Z,83.29
2023-12-11T15:22:37.019Z,84.13
2023-12-11T15:25:39.970Z,83.96
2023-12-11T15:28:44.725Z,83.93
2023-12-11T15:31:48.914Z,83.96
2023-12-11T15:34:52.506Z,84.89
2023-12-11T15:37:55.338Z,85.51
2023-12-11T15:40:58.236Z,85.08
2023-12-11T15:44:01.207Z,85.08
2023-12-11T15:47:07.988Z,85.32
2023-12-11T15:50:14.907Z,85.22
2023-12-11T15:53:17.787Z,85.74
2023-12-11T15:56:21.669Z,85.07
2023-12-11T15:59:24.396Z,85.77
2023-12-11T16:02:29.434Z,85.41
2023-12-11T16:05:37.545Z,85.06
2023-12-11T16:08:40.383Z,85.40
2023-12-11T16:11:45.168Z,86.29
2023-12-11T16:14:51.261Z,86.51
2023-12-11T16:17:55.667Z,85.94
2023-12-11T16:21:00.378Z,84.61
2023-12-11T16:24:03.313Z,85.48
2023-12-11T16:27:06.359Z,86.42
2023-12-11T16:30:11.640Z,86.78
2023-12-11T16:33:15.820Z,86.83
2023-12-11T16:36:19.047Z,87.36
2023-12-11T16:39:25.149Z,86.63
2023-12-11T16:42:29.210Z,87.36
2023-12-11T16:45:33.288Z,87.00
2023-12-11T16:48:38.040Z,87.32
2023-12-11T16:51:41.063Z,87.41
2023-12-11T16:54:50.692Z,87.42
2023-12-11T16:57:53.627Z,87.52
2023-12-11T17:00:56.478Z,87.15
2023-12-11T17:04:06.228Z,87.58
2023-12-11T17:07:10.545Z,86.94
2023-12-11T17:10:15.231Z,86.52
2023-12-11T17:13:18.164Z,86.83
2023-12-11T17:16:20.984Z,87.00
2023-12-11T17:19:25.224Z,87.51
2023-12-11T17:22:28.526Z,86.63
2023-12-11T17:25:33.778Z,87.04
2023-12-11T17:28:36.909Z,87.43
2023-12-11T17:31:40.131Z,87.09
2023-12-11T17:34:44.368Z,87.04
2023-12-11T17:37:47.184Z,87.20
2023-12-11T17:40:49.936Z,87.29
2023-12-11T17:43:55.104Z,87.38
2023-12-11T17:46:58.091Z,87.04
2023-12-11T17:50:04.359Z,87.26
2023-12-11T17:53:15.370Z,86.59
2023-12-11T17:56:18.697Z,86.50
2023-12-11T17:59:21.759Z,86.70
2023-12-11T18:02:24.691Z,87.11
2023-12-11T18:05:29.709Z,87.11
2023-12-11T18:08:32.590Z,87.42
2023-12-11T18:11:35.350Z,86.28
2023-12-11T18:14:38.242Z,87.79
2023-12-11T18:17:41.551Z,87.02
2023-12-11T18:20:45.663Z,87.58
2023-12-11T18:23:48.565Z,86.99
2023-12-11T18:26:51.355Z,86.78
2023-12-11T18:29:54.398Z,87.04
2023-12-11T18:32:57.470Z,86.63
2023-12-11T18:36:01.649Z,86.96
2023-12-11T18:39:04.693Z,86.18
2023-12-11T18:42:07.822Z,86.95
2023-12-11T18:45:11.458Z,86.54
2023-12-11T18:48:16.768Z,87.10
2023-12-11T18:51:28.597Z,88.03
2023-12-11T18:54:31.361Z,87.25
2023-12-11T18:57:34.362Z,87.58
2023-12-11T19:00:37.384Z,87.14
2023-12-11T19:03:40.230Z,87.16
2023-12-11T19:06:44.503Z,87.71
2023-12-11T19:09:47.806Z,87.88
2023-12-11T19:12:53.022Z,87.35
2023-12-11T19:15:56.022Z,85.95
2023-12-11T19:18:58.936Z,86.79
2023-12-11T19:22:03.406Z,86.73
2023-12-11T19:25:07.095Z,87.12
2023-12-11T19:28:09.878Z,87.43
2023-12-11T19:31:12.939Z,86.54
2023-12-11T19:34:16.721Z,86.46
2023-12-11T19:37:21.177Z,86.15
2023-12-11T19:40:24.056Z,86.00
2023-12-11T19:43:26.958Z,86.37
2023-12-11T19:46:29.968Z,86.36
2023-12-11T19:49:32.882Z,86.43
2023-12-11T19:52:37.250Z,86.37
2023-12-11T19:55:40.700Z,85.52
2023-12-11T19:58:43.457Z,84.10
2023-12-11T20:01:46.376Z,85.53
2023-12-11T20:04:49.271Z,85.99
2023-12-11T20:07:53.471Z,85.80
2023-12-11T20:10:56.260Z,85.83
2023-12-11T20:14:00.557Z,85.37
2023-12-11T20:17:04.569Z,85.34
2023-12-11T20:20:09.049Z,85.61
2023-12-11T20:23:13.255Z,84.16
2023-12-11T20:26:18.426Z,85.96
2023-12-11T20:29:21.282Z,86.28
2023-12-11T20:32:25.771Z,86.09
2023-12-11T20:35:34.415Z,86.76
2023-12-11T20:38:38.533Z,84.92
2023-12-11T20:41:41.314Z,85.93
2023-12-11T20:44:44.065Z,86.23
2023-12-11T20:47:49.399Z,85.79
2023-12-11T20:50:52.317Z,86.64
2023-12-11T20:53:56.419Z,86.28
2023-12-11T20:56:59.445Z,86.00
2023-12-11T21:00:06.840Z,86.10
2023-12-11T21:03:09.627Z,84.94
2023-12-11T21:06:12.374Z,84.82
2023-12-11T21:09:18.351Z,85.27
2023-12-11T21:12:21.293Z,84.42
2023-12-11T21:15:26.070Z,84.97
2023-12-11T21:18:30.460Z,86.12
2023-12-11T21:21:33.503Z,85.28
2023-12-11T21:24:37.822Z,86.04
2023-12-11T21:27:40.725Z,85.94
2023-12-11T21:30:43.824Z,86.14
2023-12-11T21:33:46.784Z,85.45
2023-12-11T21:36:49.734Z,85.27
2023-12-11T21:39:54.034Z,85.52
2023-12-11T21:42:56.799Z,84.46
2023-12-11T21:45:59.750Z,84.42
2023-12-11T21:49:03.311Z,84.71
2023-12-11T21:52:06.973Z,85.44
2023-12-11T21:55:13.942Z,83.93
2023-12-11T21:58:16.786Z,85.11
2023-12-11T22:01:19.804Z,85.41
2023-12-11T22:04:22.798Z,84.55
2023-12-11T22:07:25.805Z,84.08
2023-12-11T22:10:30.080Z,84.53
2023-12-11T22:13:33.135Z,85.24
2023-12-11T22:16:39.577Z,82.84
2023-12-11T22:19:42.664Z,83.58
2023-12-11T22:23:10.406Z,83.49
2023-12-11T22:26:14.639Z,82.68
2023-12-11T22:29:17.531Z,81.67
2023-12-11T22:32:20.442Z,82.70
2023-12-11T22:35:23.189Z,81.53
2023-12-11T22:38:26.002Z,81.81
2023-12-11T22:41:31.376Z,81.44
2023-12-11T22:44:34.268Z,80.79
2023-12-11T22:47:37.199Z,81.34
2023-12-11T22:50:39.990Z,82.28
2023-12-11T22:53:42.902Z,82.02
2023-12-11T22:56:46.970Z,82.69
2023-12-11T22:59:49.888Z,82.00
2023-12-11T23:02:52.795Z,82.31
2023-12-11T23:05:57.986Z,82.22
2023-12-11T23:09:00.922Z,81.52
2023-12-11T23:12:05.808Z,82.35
2023-12-11T23:15:10.149Z,81.82
2023-12-11T23:18:13.317Z,83.09
2023-12-11T23:21:19.711Z,84.01
2023-12-11T23:24:22.605Z,83.18
2023-12-11T23:27:26.966Z,82.98
2023-12-11T23:30:29.745Z,82.85
2023-12-11T23:33:32.739Z,83.83
2023-12-11T23:36:35.575Z,82.91
2023-12-11T23:39:38.625Z,83.20
2023-12-11T23:42:42.856Z,82.98
2023-12-11T23:45:45.722Z,82.94
2023-12-11T23:48:48.602Z,82.68
2023-12-11T23:51:51.698Z,83.13
2023-12-11T23:54:54.652Z,83.83
2023-12-11T23:57:59.176Z,82.92
